Time;durP1;ratioP1;P1;durP2;ratioP2;P2;SDS_P1;SDS_P2;PMS_P1;PMS_P2;Temp;Humidity;BMP_temperature;BMP_pressure;BME280_temperature;BME280_humidity;BME280_pressure;Samples;Min_cycle;Max_cycle;Signal;HPM_P1;HPM_P2
2022/04/20 00:00:32;;;;;;;7.65;3.10;;;10.10;43.60;;;;;;5052788;28;20361;-78
2022/04/20 00:02:58;;;;;;;4.40;2.42;;;10.10;43.90;;;;;;5052722;28;20021;-76
2022/04/20 00:05:23;;;;;;;6.40;2.85;;;10.20;43.80;;;;;;5052729;28;20515;-78
2022/04/20 00:07:49;;;;;;;6.97;2.95;;;10.10;44.00;;;;;;5052326;28;20053;-76
2022/04/20 00:10:14;;;;;;;5.18;2.83;;;10.10;44.60;;;;;;5057054;28;20029;-76
2022/04/20 00:12:40;;;;;;;4.07;2.80;;;10.00;44.60;;;;;;5059292;28;20112;-77
2022/04/20 00:15:06;;;;;;;6.80;2.95;;;9.90;44.80;;;;;;5059220;28;20025;-76
2022/04/20 00:17:32;;;;;;;8.95;3.10;;;9.90;45.20;;;;;;5059116;28;20029;-77
2022/04/20 00:19:58;;;;;;;6.30;3.20;;;9.70;45.60;;;;;;5059089;28;20410;-77
2022/04/20 00:22:23;;;;;;;4.85;3.10;;;9.70;46.00;;;;;;5059282;28;20110;-76
2022/04/20 00:24:49;;;;;;;4.82;3.17;;;9.60;46.30;;;;;;5057835;28;20055;-77
2022/04/20 00:27:14;;;;;;;5.63;3.05;;;9.60;46.60;;;;;;5059203;28;20021;-76
2022/04/20 00:29:40;;;;;;;7.25;3.08;;;9.50;47.00;;;;;;5059094;28;20029;-76
2022/04/20 00:32:06;;;;;;;6.63;3.50;;;9.50;47.30;;;;;;5057968;28;20044;-77
2022/04/20 00:34:32;;;;;;;8.38;3.90;;;9.30;47.50;;;;;;5059292;28;20081;-77
2022/04/20 00:36:58;;;;;;;8.48;3.70;;;9.10;48.30;;;;;;5058938;28;20036;-78
2022/04/20 00:39:23;;;;;;;5.65;3.13;;;9.00;49.00;;;;;;5058812;28;20075;-76
2022/04/20 00:41:49;;;;;;;5.07;3.33;;;8.90;49.60;;;;;;5057677;28;20025;-77
2022/04/20 00:44:15;;;;;;;6.28;3.63;;;8.80;49.90;;;;;;5058874;28;20482;-76
2022/04/20 00:46:42;;;;;;;7.50;3.90;;;8.80;50.20;;;;;;5058997;28;20437;-76
2022/04/20 00:49:10;;;;;;;6.13;3.78;;;8.80;50.40;;;;;;5059118;28;20059;-76
2022/04/20 00:51:35;;;;;;;5.00;3.47;;;8.70;50.80;;;;;;5058835;28;20040;-76
2022/04/20 00:54:01;;;;;;;7.65;3.50;;;8.70;51.10;;;;;;5057753;28;20021;-78
2022/04/20 00:56:28;;;;;;;8.43;3.67;;;8.60;51.40;;;;;;5058921;28;20025;-77
2022/04/20 00:58:55;;;;;;;6.90;3.50;;;8.50;51.80;;;;;;5058917;28;20387;-77
2022/04/20 01:01:22;;;;;;;5.43;3.92;;;8.40;52.10;;;;;;5058848;28;20047;-77
2022/04/20 01:03:47;;;;;;;11.30;4.25;;;8.50;52.40;;;;;;5058984;28;20028;-78
2022/04/20 01:06:13;;;;;;;6.05;3.80;;;8.40;52.50;;;;;;5058712;28;20049;-77
2022/04/20 01:08:38;;;;;;;6.47;3.50;;;8.50;52.50;;;;;;5058840;28;20031;-78
2022/04/20 01:11:05;;;;;;;5.90;3.53;;;8.40;52.70;;;;;;5058873;28;20068;-76
2022/04/20 01:13:31;;;;;;;9.27;3.95;;;8.40;53.00;;;;;;5058594;28;20055;-76
2022/04/20 01:15:57;;;;;;;6.32;4.00;;;8.30;53.30;;;;;;5058927;28;20024;-75
2022/04/20 01:18:22;;;;;;;8.52;4.43;;;8.20;53.60;;;;;;5058883;28;20486;-77
2022/04/20 01:20:48;;;;;;;5.78;4.30;;;8.20;53.90;;;;;;5056846;28;20036;-77
2022/04/20 01:23:13;;;;;;;5.70;3.80;;;8.20;54.00;;;;;;5055645;28;20017;-75
2022/04/20 01:25:39;;;;;;;12.48;4.88;;;8.20;54.20;;;;;;5055531;28;20087;-76
2022/04/20 01:28:08;;;;;;;7.82;4.40;;;8.20;54.50;;;;;;5055520;28;20022;-76
2022/04/20 01:30:35;;;;;;;10.15;5.07;;;8.20;54.60;;;;;;5054219;28;20074;-76
2022/04/20 01:33:01;;;;;;;8.15;3.90;;;8.10;55.00;;;;;;5055549;28;20032;-77
2022/04/20 01:35:26;;;;;;;8.95;4.15;;;8.00;55.40;;;;;;5056390;28;20517;-77
2022/04/20 01:37:52;;;;;;;6.88;4.53;;;8.00;55.60;;;;;;5055979;28;20028;-77
2022/04/20 01:40:18;;;;;;;8.13;4.97;;;7.90;55.70;;;;;;5055818;28;20032;-78
2022/04/20 01:42:44;;;;;;;10.45;5.32;;;7.80;55.40;;;;;;5055409;28;20024;-78
2022/04/20 01:45:09;;;;;;;6.70;4.28;;;7.70;55.90;;;;;;5055193;28;20526;-77
2022/04/20 01:47:35;;;;;;;5.90;4.32;;;7.70;55.40;;;;;;5055172;28;20060;-77
2022/04/20 01:50:01;;;;;;;5.47;4.18;;;7.60;55.60;;;;;;5055176;28;20543;-78
2022/04/20 01:52:26;;;;;;;6.15;3.80;;;7.60;55.10;;;;;;5055085;28;20491;-77
2022/04/20 01:54:52;;;;;;;7.38;4.15;;;7.70;55.00;;;;;;5055168;28;20437;-77
2022/04/20 01:57:17;;;;;;;6.22;4.45;;;7.80;54.50;;;;;;5054851;28;20024;-77
2022/04/20 01:59:43;;;;;;;9.63;4.28;;;7.80;53.90;;;;;;5054902;28;20475;-77
2022/04/20 02:04:53;;;;;;;7.65;4.32;;;7.80;53.90;;;;;;5055097;28;20094;-77
2022/04/20 02:07:18;;;;;;;8.13;3.70;;;7.80;53.60;;;;;;5068683;28;20053;-77
2022/04/20 02:09:44;;;;;;;7.40;4.30;;;7.80;53.40;;;;;;5058059;28;20120;-75
2022/04/20 02:12:09;;;;;;;6.40;4.00;;;7.80;53.30;;;;;;5054919;28;20100;-76
2022/04/20 02:14:35;;;;;;;7.32;4.20;;;7.70;53.30;;;;;;5054644;28;20021;-78
2022/04/20 02:17:01;;;;;;;5.10;4.00;;;7.60;53.50;;;;;;5054614;28;20414;-77
2022/04/20 02:19:26;;;;;;;6.68;3.88;;;7.60;53.40;;;;;;5054618;28;20352;-78
2022/04/20 02:21:52;;;;;;;6.28;3.90;;;7.60;53.10;;;;;;5054824;28;20079;-77
2022/04/20 02:24:17;;;;;;;6.05;4.10;;;7.60;53.00;;;;;;5054666;28;20079;-76
2022/04/20 02:26:43;;;;;;;5.78;3.83;;;7.60;52.80;;;;;;5054415;28;20044;-76
2022/04/20 02:29:09;;;;;;;8.55;4.35;;;7.60;52.60;;;;;;5054601;28;20525;-76
2022/04/20 02:31:34;;;;;;;7.65;3.80;;;7.60;52.60;;;;;;5054776;28;20536;-77
2022/04/20 02:34:00;;;;;;;6.15;4.10;;;7.60;52.50;;;;;;5054086;28;20059;-77
2022/04/20 02:36:26;;;;;;;7.40;4.15;;;7.60;52.50;;;;;;5054500;28;20025;-78
2022/04/20 02:38:52;;;;;;;5.43;3.83;;;7.50;52.30;;;;;;5054253;28;20033;-77
2022/04/20 02:41:18;;;;;;;4.28;3.17;;;7.50;52.40;;;;;;5054404;28;20024;-77
2022/04/20 02:43:44;;;;;;;7.32;3.70;;;7.40;52.40;;;;;;5054101;28;20471;-78
2022/04/20 02:46:10;;;;;;;8.13;3.40;;;7.40;52.70;;;;;;5055386;28;20116;-78
2022/04/20 02:48:35;;;;;;;7.85;4.15;;;7.40;52.20;;;;;;5054625;28;20017;-78
2022/04/20 02:51:01;;;;;;;6.45;3.95;;;7.40;51.80;;;;;;5054125;28;20028;-78
2022/04/20 02:53:27;;;;;;;6.30;3.90;;;7.40;51.60;;;;;;5054143;28;20017;-79
2022/04/20 02:55:53;;;;;;;7.20;3.78;;;7.40;51.80;;;;;;5053857;28;20027;-79
2022/04/20 02:58:18;;;;;;;5.80;3.50;;;7.30;51.90;;;;;;5053888;28;20021;-79
2022/04/20 03:00:44;;;;;;;5.57;3.60;;;7.30;52.00;;;;;;5054043;28;20032;-79
2022/04/20 03:03:10;;;;;;;4.82;3.40;;;7.30;51.90;;;;;;5052642;28;20486;-78
2022/04/20 03:05:35;;;;;;;5.95;3.15;;;7.40;52.00;;;;;;5053736;28;20104;-77
2022/04/20 03:08:01;;;;;;;7.25;3.47;;;7.40;51.60;;;;;;5053632;28;20418;-78
2022/04/20 03:10:27;;;;;;;6.10;3.30;;;7.40;51.20;;;;;;5053637;28;20025;-78
2022/04/20 03:12:53;;;;;;;6.45;3.30;;;7.50;50.70;;;;;;5053756;28;20095;-79
2022/04/20 03:15:18;;;;;;;5.47;3.33;;;7.40;50.10;;;;;;5053431;28;20431;-80
2022/04/20 03:17:44;;;;;;;5.80;3.42;;;7.40;50.20;;;;;;5053536;28;20021;-79
2022/04/20 03:20:10;;;;;;;5.20;2.97;;;7.40;49.70;;;;;;5053544;28;20029;-79
2022/04/20 03:22:35;;;;;;;5.18;3.20;;;7.40;50.30;;;;;;5053380;28;20454;-79
2022/04/20 03:25:02;;;;;;;5.43;2.92;;;7.50;49.50;;;;;;5053255;28;20064;-79
2022/04/20 03:27:27;;;;;;;5.30;2.60;;;7.50;49.60;;;;;;5053305;28;20521;-79
2022/04/20 03:29:53;;;;;;;4.60;2.53;;;7.50;49.50;;;;;;5053342;28;20037;-79
2022/04/20 03:32:19;;;;;;;3.17;2.50;;;7.60;49.60;;;;;;5053405;28;20489;-79
2022/04/20 03:34:45;;;;;;;6.65;3.60;;;7.60;49.40;;;;;;5053157;28;20070;-79
2022/04/20 03:37:10;;;;;;;5.75;2.97;;;7.50;49.10;;;;;;5053216;28;20040;-79
2022/04/20 03:39:36;;;;;;;7.70;2.78;;;7.50;49.00;;;;;;5053178;28;20036;-79
2022/04/20 03:42:03;;;;;;;5.82;3.67;;;7.50;48.70;;;;;;5052957;28;20456;-79
2022/04/20 03:44:30;;;;;;;6.03;3.15;;;7.50;48.80;;;;;;5052471;28;20637;-79
2022/04/20 03:46:55;;;;;;;4.00;2.78;;;7.40;49.00;;;;;;5052839;28;20128;-79
2022/04/20 03:49:21;;;;;;;9.73;3.03;;;7.40;49.10;;;;;;5052774;28;20130;-79
2022/04/20 03:51:47;;;;;;;6.75;2.95;;;7.40;49.10;;;;;;5052910;28;20033;-78
2022/04/20 03:54:13;;;;;;;6.35;3.00;;;7.50;48.80;;;;;;5052781;28;20532;-79
2022/04/20 03:59:23;;;;;;;4.57;2.75;;;7.40;48.30;;;;;;5052957;28;20036;-79
2022/04/20 04:01:49;;;;;;;6.03;2.83;;;7.40;48.20;;;;;;5052812;28;20025;-79
2022/04/20 04:04:15;;;;;;;8.52;3.30;;;7.40;48.30;;;;;;5052619;28;20071;-79
2022/04/20 04:06:40;;;;;;;5.53;3.30;;;7.40;48.40;;;;;;5052866;28;20049;-77
2022/04/20 04:09:06;;;;;;;3.58;2.92;;;7.40;48.60;;;;;;5052846;28;20489;-76
2022/04/20 04:11:31;;;;;;;7.15;3.08;;;7.40;48.10;;;;;;5052570;28;20029;-76
2022/04/20 04:13:57;;;;;;;8.32;2.50;;;7.40;47.70;;;;;;5051525;28;20032;-76
2022/04/20 04:16:22;;;;;;;4.88;2.70;;;7.40;47.40;;;;;;5052595;28;20028;-77
2022/04/20 04:18:48;;;;;;;4.75;2.38;;;7.40;47.40;;;;;;5052728;28;20017;-76
2022/04/20 04:21:13;;;;;;;3.97;2.22;;;7.50;47.40;;;;;;5052693;28;20033;-76
2022/04/20 04:23:39;;;;;;;3.30;2.53;;;7.50;47.00;;;;;;5052669;28;20070;-77
2022/04/20 04:26:05;;;;;;;3.47;2.35;;;7.40;46.90;;;;;;5052411;28;20148;-77
2022/04/20 04:28:30;;;;;;;3.35;2.50;;;7.40;46.90;;;;;;5052327;28;20029;-77
2022/04/20 04:30:56;;;;;;;3.38;1.92;;;7.50;47.10;;;;;;5053026;28;20104;-76
2022/04/20 04:33:21;;;;;;;3.47;2.40;;;7.50;46.90;;;;;;5063693;28;20032;-77
2022/04/20 04:35:47;;;;;;;5.10;2.35;;;7.60;46.70;;;;;;5053400;28;20025;-77
2022/04/20 04:38:14;;;;;;;3.67;2.20;;;7.60;46.50;;;;;;5052526;28;20029;-76
2022/04/20 04:40:40;;;;;;;5.40;2.15;;;7.60;46.10;;;;;;5052425;28;20075;-77
2022/04/20 04:43:05;;;;;;;5.35;2.83;;;7.60;44.20;;;;;;5052432;28;20029;-77
2022/04/20 04:50:59;;;;;;;4.70;2.13;;;7.60;44.10;;;;;;5052479;28;20052;-77
2022/04/20 04:53:24;;;;;;;4.28;2.00;;;7.60;43.70;;;;;;5052070;28;20463;-77
2022/04/20 04:55:50;;;;;;;4.97;1.90;;;7.70;43.60;;;;;;5052207;28;20115;-78
2022/04/20 04:58:16;;;;;;;3.08;1.88;;;7.80;43.30;;;;;;5055886;28;20526;-78
2022/04/20 05:00:42;;;;;;;5.72;2.65;;;7.80;43.00;;;;;;5056051;28;20043;-77
2022/04/20 05:03:09;;;;;;;3.30;2.38;;;7.90;43.20;;;;;;5056103;28;20495;-76
2022/04/20 05:05:34;;;;;;;5.57;2.60;;;7.90;43.00;;;;;;5055905;28;20025;-77
2022/04/20 05:08:00;;;;;;;4.18;2.60;;;7.90;43.20;;;;;;5056130;28;20051;-77
2022/04/20 05:10:25;;;;;;;5.78;2.70;;;8.00;43.20;;;;;;5055020;28;20041;-77
2022/04/20 05:12:51;;;;;;;3.33;1.98;;;8.00;42.60;;;;;;5055734;28;20021;-77
2022/04/20 05:15:17;;;;;;;2.88;1.77;;;8.00;41.40;;;;;;5055902;28;20044;-76
2022/04/20 05:17:42;;;;;;;4.15;2.13;;;8.10;41.30;;;;;;5055327;28;20021;-78
2022/04/20 05:20:09;;;;;;;3.28;1.75;;;8.20;41.10;;;;;;5055498;28;20021;-76
2022/04/20 05:22:36;;;;;;;2.92;2.05;;;8.30;40.90;;;;;;5055621;28;20104;-77
2022/04/20 05:25:02;;;;;;;4.10;2.83;;;8.50;40.90;;;;;;5055629;28;20028;-75
2022/04/20 05:27:28;;;;;;;4.70;3.20;;;8.50;41.00;;;;;;5055615;28;20399;-75
2022/04/20 05:29:54;;;;;;;9.07;4.25;;;8.50;41.20;;;;;;5055554;28;20021;-78
2022/04/20 05:32:19;;;;;;;4.68;3.13;;;8.50;41.50;;;;;;5055276;28;20029;-76
2022/04/20 05:34:45;;;;;;;6.75;4.13;;;8.50;41.90;;;;;;5055109;28;20521;-77
2022/04/20 05:42:39;;;;;;;5.47;3.38;;;8.70;41.30;;;;;;5054941;28;20036;-78
2022/04/20 05:45:05;;;;;;;8.93;3.33;;;8.50;42.80;;;;;;5055110;28;20025;-79
2022/04/20 05:47:32;;;;;;;9.68;3.17;;;8.50;43.40;;;;;;5055145;28;20029;-79
2022/04/20 05:49:57;;;;;;;9.68;3.55;;;8.50;43.90;;;;;;5055111;28;20017;-78
2022/04/20 05:52:23;;;;;;;6.75;3.40;;;8.40;43.80;;;;;;5055015;28;20033;-80
2022/04/20 05:54:48;;;;;;;8.45;3.05;;;8.40;43.90;;;;;;5054796;28;20104;-79
2022/04/20 05:57:14;;;;;;;7.65;2.88;;;8.50;43.80;;;;;;5055013;28;20112;-78
2022/04/20 05:59:39;;;;;;;5.88;3.13;;;8.70;43.70;;;;;;5053266;28;20024;-78
2022/04/20 06:02:06;;;;;;;6.30;3.53;;;8.80;43.50;;;;;;5054798;28;20025;-79
2022/04/20 06:04:31;;;;;;;3.55;2.50;;;9.00;42.80;;;;;;5054673;28;20383;-79
2022/04/20 06:06:57;;;;;;;8.20;2.92;;;9.10;42.50;;;;;;5053757;28;20048;-82
2022/04/20 06:09:22;;;;;;;4.38;2.50;;;9.10;41.90;;;;;;5054490;28;20047;-81
2022/04/20 06:11:49;;;;;;;5.88;2.92;;;9.20;42.00;;;;;;5054236;28;20028;-81
2022/04/20 06:14:15;;;;;;;9.32;3.30;;;9.20;42.10;;;;;;5054535;28;20049;-82
2022/04/20 06:16:41;;;;;;;6.93;2.63;;;9.30;42.30;;;;;;5054466;28;20056;-81
2022/04/20 06:19:07;;;;;;;7.13;3.15;;;9.30;42.20;;;;;;5054630;28;20025;-81
2022/04/20 06:21:33;;;;;;;4.97;2.65;;;9.10;42.40;;;;;;5054375;28;20025;-80
2022/04/20 06:23:59;;;;;;;7.05;3.28;;;8.80;43.20;;;;;;5054358;28;20047;-80
2022/04/20 06:26:24;;;;;;;6.13;2.90;;;8.80;43.80;;;;;;5054378;28;20029;-82
2022/04/20 06:28:50;;;;;;;6.47;3.28;;;8.90;44.00;;;;;;5054228;28;20047;-83
2022/04/20 06:31:15;;;;;;;5.82;2.58;;;9.00;43.90;;;;;;5053066;28;20118;-83
2022/04/20 06:33:41;;;;;;;9.38;2.90;;;9.10;43.20;;;;;;5055039;28;20032;-82
2022/04/20 06:36:06;;;;;;;4.47;2.55;;;9.20;42.10;;;;;;5064420;28;20025;-82
2022/04/20 06:38:32;;;;;;;4.60;2.20;;;9.30;41.80;;;;;;5063439;28;20047;-82
2022/04/20 06:40:58;;;;;;;4.13;2.20;;;9.30;41.30;;;;;;5064661;28;20025;-83
2022/04/20 06:43:24;;;;;;;3.65;2.20;;;9.40;41.50;;;;;;5058319;28;20021;-80
2022/04/20 06:45:50;;;;;;;5.55;2.67;;;9.60;41.50;;;;;;5053879;28;20044;-81
2022/04/20 06:48:15;;;;;;;8.68;3.08;;;9.70;41.70;;;;;;5053839;28;20021;-82
2022/04/20 06:50:41;;;;;;;8.75;2.72;;;9.70;42.10;;;;;;5053376;28;20401;-82
2022/04/20 06:58:35;;;;;;;4.70;2.60;;;10.00;41.10;;;;;;5062874;28;20048;-80
2022/04/20 07:01:04;;;;;;;4.95;2.47;;;10.20;40.30;;;;;;5065677;28;20406;-81
2022/04/20 07:03:30;;;;;;;6.13;3.05;;;10.30;39.30;;;;;;5054063;28;20095;-81
2022/04/20 07:05:57;;;;;;;5.82;2.45;;;10.50;38.80;;;;;;5053104;28;20060;-78
2022/04/20 07:08:23;;;;;;;4.03;1.95;;;10.70;38.30;;;;;;5053392;28;20036;-79
2022/04/20 07:10:49;;;;;;;5.90;1.85;;;10.90;36.90;;;;;;5053323;28;20187;-77
2022/04/20 07:13:16;;;;;;;5.20;2.95;;;11.00;35.80;;;;;;5053244;28;20104;-77
2022/04/20 07:15:42;;;;;;;5.97;2.58;;;11.10;38.30;;;;;;5053142;28;20019;-78
2022/04/20 07:18:08;;;;;;;3.35;2.17;;;11.10;37.90;;;;;;5053423;28;20104;-75
2022/04/20 07:20:33;;;;;;;6.15;2.40;;;11.30;37.20;;;;;;5052258;28;20060;-77
2022/04/20 07:22:59;;;;;;;3.92;2.05;;;11.10;35.40;;;;;;5052896;28;20528;-76
2022/04/20 07:25:25;;;;;;;4.50;2.05;;;11.10;35.80;;;;;;5053234;28;20021;-76
2022/04/20 07:27:51;;;;;;;3.00;2.22;;;11.00;35.00;;;;;;5051919;28;20060;-76
2022/04/20 07:30:17;;;;;;;11.82;3.00;;;11.00;35.20;;;;;;5053087;28;20535;-73
2022/04/20 07:32:43;;;;;;;3.75;2.20;;;11.20;39.30;;;;;;5052835;28;20100;-73
2022/04/20 07:35:09;;;;;;;5.03;2.47;;;11.50;37.00;;;;;;5052658;28;20424;-73
2022/04/20 07:37:34;;;;;;;3.15;2.30;;;11.40;34.70;;;;;;5053010;28;20028;-73
2022/04/20 07:40:00;;;;;;;2.70;2.10;;;11.30;36.80;;;;;;5052769;28;20028;-73
2022/04/20 07:42:25;;;;;;;4.80;1.70;;;11.60;36.30;;;;;;5052862;28;20021;-73
2022/04/20 07:44:56;;;;;;;3.03;1.95;;;11.80;37.10;;;;;;5052748;28;20036;-73
2022/04/20 07:47:25;;;;;;;4.28;1.80;;;12.00;35.80;;;;;;5052890;28;20182;-71
2022/04/20 07:52:42;;;;;;;5.22;2.33;;;12.30;35.80;;;;;;5052750;28;20531;-72
2022/04/20 07:55:10;;;;;;;3.58;1.83;;;12.30;36.20;;;;;;5052747;28;20505;-72
2022/04/20 07:57:36;;;;;;;3.85;2.45;;;12.40;35.20;;;;;;5052742;28;20017;-72
2022/04/20 08:00:06;;;;;;;3.17;2.03;;;12.30;34.70;;;;;;5052616;28;20025;-72
2022/04/20 08:02:32;;;;;;;3.80;1.95;;;12.30;35.70;;;;;;5052722;28;20048;-73
2022/04/20 08:04:58;;;;;;;5.60;2.10;;;12.50;36.40;;;;;;5052448;28;20095;-74
2022/04/20 08:07:24;;;;;;;3.15;1.95;;;12.60;35.60;;;;;;5054917;28;20056;-74
2022/04/20 08:09:49;;;;;;;3.67;2.10;;;12.80;36.10;;;;;;5057079;28;20531;-74
2022/04/20 08:12:15;;;;;;;2.65;2.05;;;13.10;35.60;;;;;;5054758;28;20037;-74
2022/04/20 08:14:41;;;;;;;4.40;2.60;;;13.20;33.90;;;;;;5053444;28;20028;-73
2022/04/20 08:17:07;;;;;;;3.83;2.03;;;12.90;33.30;;;;;;5064054;28;20085;-77
2022/04/20 08:19:33;;;;;;;5.60;3.80;;;12.80;34.00;;;;;;5069929;28;20427;-77
2022/04/20 08:21:58;;;;;;;3.55;2.20;;;12.90;34.20;;;;;;5053365;28;20104;-77
2022/04/20 08:24:24;;;;;;;4.57;2.00;;;12.80;33.80;;;;;;5053221;28;20029;-76
2022/04/20 08:26:50;;;;;;;4.22;2.40;;;12.80;33.70;;;;;;5052071;28;20033;-78
2022/04/20 08:29:16;;;;;;;4.85;2.78;;;12.70;34.40;;;;;;5050913;28;20025;-77
2022/04/20 08:31:41;;;;;;;5.22;2.22;;;12.70;34.40;;;;;;5054344;28;20037;-77
2022/04/20 08:34:07;;;;;;;6.38;2.33;;;12.70;34.30;;;;;;5056539;28;20096;-76
2022/04/20 08:36:33;;;;;;;3.55;2.92;;;12.80;34.50;;;;;;5056445;28;20028;-76
2022/04/20 08:38:59;;;;;;;5.38;2.63;;;12.80;34.50;;;;;;5055639;28;20025;-77
2022/04/20 08:41:25;;;;;;;3.92;2.00;;;12.70;34.10;;;;;;5055072;28;20025;-78
2022/04/20 08:43:52;;;;;;;3.20;2.00;;;12.70;34.00;;;;;;5055057;28;20454;-78
2022/04/20 08:46:18;;;;;;;4.25;2.50;;;12.70;33.40;;;;;;5056148;28;20083;-81
2022/04/20 08:48:44;;;;;;;5.78;2.45;;;12.80;33.60;;;;;;5054015;28;20446;-78
2022/04/20 08:51:10;;;;;;;5.15;2.30;;;12.70;32.80;;;;;;5054982;28;20056;-80
2022/04/20 08:53:36;;;;;;;3.05;2.17;;;12.70;33.30;;;;;;5054916;28;20017;-80
2022/04/20 08:58:50;;;;;;;3.33;2.72;;;12.90;33.70;;;;;;5036505;28;20036;-81
2022/04/20 09:01:18;;;;;;;4.95;3.70;;;12.90;33.50;;;;;;5036206;28;20057;-79
2022/04/20 09:03:46;;;;;;;6.88;2.40;;;13.00;33.80;;;;;;5035856;28;20104;-80
2022/04/20 09:06:15;;;;;;;3.33;2.10;;;13.10;34.10;;;;;;5056450;28;20044;-79
2022/04/20 09:08:41;;;;;;;2.85;1.92;;;13.10;33.30;;;;;;5055094;28;20147;-79
2022/04/20 09:11:07;;;;;;;2.95;1.75;;;13.20;33.70;;;;;;5055105;28;20032;-79
2022/04/20 09:13:41;;;;;;;4.57;2.20;;;13.40;34.10;;;;;;5054306;28;20025;-78
2022/04/20 09:16:09;;;;;;;2.35;1.73;;;13.50;33.20;;;;;;5054543;28;20077;-80
2022/04/20 09:18:35;;;;;;;4.53;2.85;;;13.70;33.00;;;;;;5055771;28;20025;-80
2022/04/20 09:21:05;;;;;;;5.13;2.15;;;13.90;32.40;;;;;;5055634;28;20500;-78
2022/04/20 09:23:32;;;;;;;4.82;2.20;;;14.00;31.30;;;;;;5053865;28;20029;-77
2022/04/20 09:26:16;;;;;;;3.20;2.42;;;14.10;30.80;;;;;;5055169;28;20163;-78
2022/04/20 09:29:02;;;;;;;2.50;2.00;;;14.20;31.00;;;;;;5054427;28;20009;-76
2022/04/20 09:31:48;;;;;;;4.63;1.90;;;14.30;30.60;;;;;;5049963;28;20029;-76
2022/04/20 09:34:25;;;;;;;5.43;2.75;;;14.30;29.30;;;;;;5053511;28;20060;-76
2022/04/20 09:36:54;;;;;;;7.50;2.30;;;14.30;29.60;;;;;;5053761;28;20102;-78
2022/04/20 09:39:20;;;;;;;5.47;2.50;;;14.30;29.80;;;;;;5039320;28;20029;-77
2022/04/20 09:41:59;;;;;;;2.90;2.08;;;14.10;29.80;;;;;;5053278;28;20025;-77
2022/04/20 09:44:31;;;;;;;2.42;1.80;;;14.20;29.60;;;;;;5052890;28;20017;-77
2022/04/20 09:50:00;;;;;;;4.38;2.22;;;14.30;28.80;;;;;;5055128;28;20055;-81
2022/04/20 09:52:43;;;;;;;5.63;2.35;;;14.40;28.40;;;;;;5053683;28;20048;-81
2022/04/20 09:55:25;;;;;;;4.65;2.17;;;14.40;28.10;;;;;;5052256;28;20049;-81
2022/04/20 09:57:50;;;;;;;3.03;1.98;;;14.50;29.30;;;;;;5054491;28;20039;-81
2022/04/20 10:00:16;;;;;;;4.05;2.15;;;14.70;29.10;;;;;;5053984;28;20021;-81
2022/04/20 10:02:46;;;;;;;5.47;2.33;;;15.00;29.50;;;;;;5055141;28;20471;-81
2022/04/20 10:05:12;;;;;;;3.67;2.00;;;15.30;28.90;;;;;;5053123;28;20040;-77
2022/04/20 10:07:37;;;;;;;3.42;2.22;;;15.30;27.30;;;;;;5054315;28;20045;-79
2022/04/20 10:10:04;;;;;;;2.75;1.92;;;15.50;26.20;;;;;;5054401;28;20514;-80
2022/04/20 10:12:31;;;;;;;2.80;2.08;;;15.70;26.20;;;;;;5054535;28;20078;-79
2022/04/20 10:17:48;;;;;;;2.67;2.17;;;16.00;26.50;;;;;;5055079;28;20075;-76
2022/04/20 10:20:14;;;;;;;4.72;2.83;;;16.00;25.60;;;;;;5054563;28;20099;-78
2022/04/20 10:22:42;;;;;;;4.65;2.00;;;16.20;26.10;;;;;;5054675;28;20060;-77
2022/04/20 10:25:09;;;;;;;3.80;2.53;;;16.00;24.60;;;;;;5054916;28;20021;-78
2022/04/20 10:28:13;;;;;;;6.45;2.80;;;15.80;24.70;;;;;;5056224;28;20028;-79
2022/04/20 10:30:53;;;;;;;5.68;2.58;;;15.70;24.80;;;;;;5061966;28;20044;-79
2022/04/20 10:33:20;;;;;;;3.70;2.35;;;15.90;26.10;;;;;;5054668;28;20100;-76
2022/04/20 10:35:59;;;;;;;2.50;1.77;;;16.20;26.90;;;;;;5053386;28;20025;-79
2022/04/20 10:38:27;;;;;;;4.57;2.33;;;16.50;25.30;;;;;;5053182;28;20021;-79
2022/04/20 10:41:08;;;;;;;3.03;2.47;;;16.70;24.90;;;;;;5054331;28;20104;-80
2022/04/20 10:43:39;;;;;;;3.97;2.08;;;16.90;24.90;;;;;;5053925;28;20414;-79
2022/04/20 10:46:11;;;;;;;4.50;2.22;;;17.00;23.80;;;;;;5054176;28;20109;-79
2022/04/20 10:48:44;;;;;;;3.28;2.10;;;17.20;23.20;;;;;;5054020;28;20039;-80
2022/04/20 10:51:22;;;;;;;2.88;2.35;;;17.30;22.80;;;;;;5053735;28;20020;-79
2022/04/20 10:53:48;;;;;;;4.32;2.35;;;17.40;22.40;;;;;;5053861;28;20025;-80
2022/04/20 10:56:17;;;;;;;2.67;1.80;;;17.60;22.50;;;;;;5053838;28;20025;-80
2022/04/20 10:58:52;;;;;;;4.47;2.67;;;17.80;22.50;;;;;;5053934;28;20510;-79
2022/04/20 11:01:18;;;;;;;3.90;2.72;;;18.00;22.90;;;;;;5053844;28;20039;-80
2022/04/20 11:04:05;;;;;;;4.60;2.58;;;18.20;22.90;;;;;;5053294;28;20449;-80
2022/04/20 11:06:58;;;;;;;3.08;2.30;;;18.30;22.10;;;;;;5053903;28;20044;-79
2022/04/20 11:09:42;;;;;;;3.88;2.20;;;18.40;22.00;;;;;;5053776;28;20085;-80
2022/04/20 11:21:06;;;;;;;5.30;2.30;;;18.00;21.30;;;;;;5052878;28;20040;-79
2022/04/20 11:23:58;;;;;;;4.20;2.67;;;18.20;23.00;;;;;;5052538;28;20055;-80
2022/04/20 11:26:41;;;;;;;2.53;2.20;;;18.40;21.90;;;;;;5053202;28;20509;-79
2022/04/20 11:29:14;;;;;;;40.30;9.20;;;18.70;21.40;;;;;;5053133;28;20037;-79
2022/04/20 11:31:45;;;;;;;38.67;8.50;;;18.70;20.90;;;;;;5052591;28;20021;-79
2022/04/20 11:34:11;;;;;;;21.90;5.65;;;18.90;20.30;;;;;;5053058;28;20059;-79
2022/04/20 11:36:43;;;;;;;5.15;3.50;;;19.10;19.90;;;;;;5052698;28;20029;-80
2022/04/20 11:39:09;;;;;;;5.03;3.38;;;19.20;19.50;;;;;;5053005;28;20017;-80
2022/04/20 11:41:35;;;;;;;17.33;4.68;;;19.20;19.60;;;;;;5053112;28;20075;-79
2022/04/20 11:44:02;;;;;;;5.13;2.88;;;19.40;20.80;;;;;;5053367;28;20495;-79
2022/04/20 11:46:27;;;;;;;7.90;3.33;;;19.50;19.70;;;;;;5052610;28;20033;-79
2022/04/20 11:48:58;;;;;;;6.20;2.90;;;19.30;18.70;;;;;;5052985;28;20076;-79
2022/04/20 11:51:31;;;;;;;3.90;2.13;;;19.50;19.40;;;;;;5053166;28;20029;-79
2022/04/20 11:53:56;;;;;;;8.05;2.38;;;19.50;19.40;;;;;;5053022;28;20040;-79
2022/04/20 11:56:33;;;;;;;4.35;2.20;;;19.50;19.10;;;;;;5051802;28;20033;-79
2022/04/20 11:59:00;;;;;;;4.20;2.53;;;19.60;18.50;;;;;;5053126;28;20021;-79
2022/04/20 12:01:26;;;;;;;3.08;2.28;;;19.80;18.60;;;;;;5053167;28;20029;-79
2022/04/20 12:03:51;;;;;;;2.63;2.30;;;19.70;19.00;;;;;;5051762;28;20029;-78
2022/04/20 12:06:18;;;;;;;3.83;2.22;;;19.50;18.10;;;;;;5052187;28;20053;-79
2022/04/20 12:08:45;;;;;;;5.53;2.40;;;19.20;18.70;;;;;;5055974;28;20043;-79
2022/04/20 12:11:12;;;;;;;5.00;2.25;;;19.40;18.70;;;;;;5056820;28;20029;-78
2022/04/20 12:13:39;;;;;;;2.85;2.10;;;19.60;18.50;;;;;;5056968;28;20024;-79
2022/04/20 12:16:07;;;;;;;6.45;2.53;;;19.90;18.20;;;;;;5062594;28;20012;-79
2022/04/20 12:18:36;;;;;;;3.45;2.20;;;20.10;17.70;;;;;;5077175;28;20009;-78
2022/04/20 12:21:03;;;;;;;3.67;2.40;;;20.10;17.10;;;;;;5078155;28;20075;-78
2022/04/20 12:23:36;;;;;;;4.75;2.20;;;20.30;17.30;;;;;;5076217;28;20033;-78
2022/04/20 12:26:06;;;;;;;3.70;2.42;;;20.60;17.40;;;;;;5077805;28;20072;-79
2022/04/20 12:28:41;;;;;;;5.25;3.50;;;20.60;17.60;;;;;;5076340;28;20016;-80
2022/04/20 12:31:09;;;;;;;5.20;2.50;;;20.80;16.60;;;;;;5077151;28;20119;-78
2022/04/20 12:33:37;;;;;;;2.80;2.25;;;20.90;16.80;;;;;;5076794;28;20021;-78
2022/04/20 12:36:11;;;;;;;5.18;3.00;;;20.90;17.00;;;;;;5060122;28;20017;-79
2022/04/20 12:38:47;;;;;;;4.72;1.83;;;21.10;17.20;;;;;;5052858;28;20021;-78
2022/04/20 12:41:43;;;;;;;3.25;2.40;;;21.30;17.30;;;;;;5052474;28;20475;-78
2022/04/20 12:44:36;;;;;;;5.57;2.77;;;21.70;17.70;;;;;;5052927;28;20032;-78
2022/04/20 12:47:10;;;;;;;2.95;2.42;;;21.60;15.50;;;;;;5051420;28;20297;-79
2022/04/20 12:49:36;;;;;;;3.42;2.35;;;21.70;15.60;;;;;;5052408;28;20022;-78
2022/04/20 12:52:14;;;;;;;3.63;2.20;;;21.90;15.90;;;;;;5051214;28;20537;-78
2022/04/20 12:54:52;;;;;;;4.63;2.17;;;22.00;15.30;;;;;;5052842;28;20078;-79
2022/04/20 13:03:12;;;;;;;2.47;2.00;;;22.20;15.70;;;;;;5052453;28;20103;-79
2022/04/20 13:05:40;;;;;;;6.97;3.15;;;22.30;15.40;;;;;;5051771;28;20530;-78
2022/04/20 13:08:07;;;;;;;3.28;2.42;;;22.40;15.40;;;;;;5052132;28;20487;-79
2022/04/20 13:10:41;;;;;;;6.57;2.30;;;22.40;15.00;;;;;;5052230;28;20071;-78
2022/04/20 13:13:07;;;;;;;2.25;1.77;;;22.40;14.50;;;;;;5052203;28;20024;-79
2022/04/20 13:15:34;;;;;;;2.78;2.00;;;22.50;15.00;;;;;;5052168;28;20036;-79
2022/04/20 13:17:59;;;;;;;2.45;2.10;;;22.70;14.90;;;;;;5053698;28;20422;-79
2022/04/20 13:20:28;;;;;;;4.60;2.10;;;22.90;14.40;;;;;;5055577;28;20033;-78
2022/04/20 13:22:54;;;;;;;4.95;2.55;;;23.10;14.90;;;;;;5057407;28;20462;-79
2022/04/20 13:28:04;;;;;;;3.53;2.05;;;23.20;13.50;;;;;;5056158;28;20086;-79
2022/04/20 13:30:38;;;;;;;2.35;2.10;;;23.20;13.10;;;;;;5055446;28;20021;-78
2022/04/20 13:33:10;;;;;;;5.90;3.05;;;23.30;13.60;;;;;;5055431;28;20025;-78
2022/04/20 13:35:36;;;;;;;4.10;1.85;;;23.40;13.20;;;;;;5055078;28;20025;-78
2022/04/20 13:38:02;;;;;;;4.30;2.38;;;23.50;12.90;;;;;;5055807;28;20021;-79
2022/04/20 13:40:28;;;;;;;3.58;2.40;;;23.40;12.80;;;;;;5060972;28;20031;-78
2022/04/20 13:42:56;;;;;;;3.08;2.38;;;23.40;13.00;;;;;;5056678;28;20079;-79